KELD/ELD METAR and TAF weather

Enter ICAO airport designator
Station Type Date Time Source
KELD METAR 2020/09/19 21:53 UTC NOAA

KELD 192153Z AUTO 03007KT 10SM CLR 25/14 A3008 RMK AO2 SLP182 T02500144


Station Type Date Time Source
KELD Decoded METAR 2020/09/19 21:53 UTC NOAA

SOUTH ARKANSAS REGIONAL, AR, United States (KELD) 33-13N 092-49W 81M
Sep 19, 2020 - 05:53 PM EDT / 2020.09.19 2153 UTC
Wind: from the NNE (030 degrees) at 8 MPH (7 KT):0
Visibility: 10 mile(s):0
Sky conditions: clear
Temperature: 77.0 F (25.0 C)
Dew Point: 57.9 F (14.4 C)
Relative Humidity: 51%
Pressure (altimeter): 30.08 in. Hg (1018 hPa)
ob: KELD 192153Z AUTO 03007KT 10SM CLR 25/14 A3008 RMK AO2 SLP182 T02500144
cycle: 22

Station Type Date Time Source
KELD TAF 2020/09/19 19:09 UTC NOAA

TAF
AMD KELD 191907Z 1919/2018 02009G16KT P6SM SCT250
FM200300 04005KT P6SM SCT250
FM201100 03005KT P6SM BKN015 BKN250
FM201600 06010KT P6SM BKN250

Example: see airport list